Eastman, Wisconsin
Current Conditions -  °F | °C
As of 8:15 PM on Friday 19 Dec 2014 (Local Time) from KPDC Reporting Station
Overcast Overcast  
Wind Chill: 28°   Ceiling: 7500
Heat Index: 28°   Visibility: 10mi
Dew Point: 22°   Wind: 0mph
Humidity: 78%   Direction: NA
Pressure: 30.24"   Gusts: NA
Location:  43.17°N, 91.02°W
Report Text: KPDC 200215Z AUTO 00000KT 10SM SCT044 OVC075 M02/M06 A3024 RMK AO2 T10221056
Loading
Personal Weather Stations






























Interactive Weather Map New forecast layout! Learn more

10-Day Weather Forecast

Advertisements
Track Severe Weather on mobile